Terminal Aerodrome Forecast
Issued by NWS Green Bay, WI

Home | Current Version | Previous Version | Text Only | Print | Product List | Glossary On
Versions: 1 2 3 4 5 6 7 8 9 10 11 12 13 14 15 16 17 18 19 20 21 22 23 24 25 26 27 28 29 30 31 32 33 34 35 36
000
FTUS43 KGRB 292300
TAFGRB
TAF
KGRB 292327Z 3000/3024 29019G30KT P6SM BKN035
     FM300200 27013G23KT P6SM SCT050
     FM300500 27008KT P6SM SKC
     FM302100 24006KT P6SM SCT045 BKN100 PROB30 3021/3024 6SM -RA=

USA.gov is the U.S. government's official web portal to all federal, state and local government web resources and services.